sensor_id;sensor_type;location;lat;lon;timestamp;pressure;altitude;pressure_sealevel;temperature;humidity
69630;BME280;56857;52.212;5.496;2023-07-20T00:00:25;101535.97;;;17.54;100.00
69630;BME280;56857;52.212;5.496;2023-07-20T00:02:51;101532.66;;;17.52;100.00
69630;BME280;56857;52.212;5.496;2023-07-20T00:05:16;101535.53;;;17.51;100.00
69630;BME280;56857;52.212;5.496;2023-07-20T00:07:42;101528.72;;;17.48;100.00
69630;BME280;56857;52.212;5.496;2023-07-20T00:10:07;101533.44;;;17.46;100.00
69630;BME280;56857;52.212;5.496;2023-07-20T00:12:33;101536.13;;;17.46;100.00
69630;BME280;56857;52.212;5.496;2023-07-20T00:14:58;101537.81;;;17.47;100.00
69630;BME280;56857;52.212;5.496;2023-07-20T00:17:23;101532.63;;;17.46;100.00
69630;BME280;56857;52.212;5.496;2023-07-20T00:19:49;101530.56;;;17.41;100.00
69630;BME280;56857;52.212;5.496;2023-07-20T00:22:14;101531.75;;;17.38;100.00
69630;BME280;56857;52.212;5.496;2023-07-20T00:24:39;101541.66;;;17.38;100.00
69630;BME280;56857;52.212;5.496;2023-07-20T00:27:05;101540.19;;;17.35;100.00
69630;BME280;56857;52.212;5.496;2023-07-20T00:29:30;101536.88;;;17.33;100.00
69630;BME280;56857;52.212;5.496;2023-07-20T00:31:56;101541.63;;;17.31;100.00
69630;BME280;56857;52.212;5.496;2023-07-20T00:34:21;101539.13;;;17.30;100.00
69630;BME280;56857;52.212;5.496;2023-07-20T00:36:46;101534.16;;;17.27;100.00
69630;BME280;56857;52.212;5.496;2023-07-20T00:39:11;101529.00;;;17.25;100.00
69630;BME280;56857;52.212;5.496;2023-07-20T00:41:37;101531.06;;;17.23;100.00
69630;BME280;56857;52.212;5.496;2023-07-20T00:44:02;101527.13;;;17.19;100.00
69630;BME280;56857;52.212;5.496;2023-07-20T00:46:27;101528.16;;;17.18;100.00
69630;BME280;56857;52.212;5.496;2023-07-20T00:48:53;101524.81;;;17.16;100.00
69630;BME280;56857;52.212;5.496;2023-07-20T00:51:20;101523.19;;;17.15;100.00
69630;BME280;56857;52.212;5.496;2023-07-20T00:53:46;101523.38;;;17.13;100.00
69630;BME280;56857;52.212;5.496;2023-07-20T00:56:11;101531.63;;;17.12;100.00
69630;BME280;56857;52.212;5.496;2023-07-20T00:58:37;101524.56;;;17.11;100.00
69630;BME280;56857;52.212;5.496;2023-07-20T01:01:02;101521.47;;;17.07;100.00
69630;BME280;56857;52.212;5.496;2023-07-20T01:03:28;101521.84;;;17.04;100.00
69630;BME280;56857;52.212;5.496;2023-07-20T01:08:40;101534.00;;;17.00;100.00
69630;BME280;56857;52.212;5.496;2023-07-20T01:11:15;101534.16;;;16.99;100.00
69630;BME280;56857;52.212;5.496;2023-07-20T01:13:43;101534.16;;;16.99;100.00
69630;BME280;56857;52.212;5.496;2023-07-20T01:16:08;101533.34;;;16.98;100.00
69630;BME280;56857;52.212;5.496;2023-07-20T01:18:34;101530.66;;;16.98;100.00
69630;BME280;56857;52.212;5.496;2023-07-20T01:21:03;101537.06;;;16.97;100.00
69630;BME280;56857;52.212;5.496;2023-07-20T01:26:27;101531.44;;;16.92;100.00
69630;BME280;56857;52.212;5.496;2023-07-20T01:31:47;101532.03;;;16.87;100.00
69630;BME280;56857;52.212;5.496;2023-07-20T01:34:17;101533.25;;;16.85;100.00
69630;BME280;56857;52.212;5.496;2023-07-20T01:36:44;101534.47;;;16.82;100.00
69630;BME280;56857;52.212;5.496;2023-07-20T01:39:10;101534.03;;;16.79;100.00
69630;BME280;56857;52.212;5.496;2023-07-20T01:41:36;101529.69;;;16.78;100.00
69630;BME280;56857;52.212;5.496;2023-07-20T01:44:03;101529.22;;;16.74;100.00
69630;BME280;56857;52.212;5.496;2023-07-20T01:46:28;101528.59;;;16.72;100.00
69630;BME280;56857;52.212;5.496;2023-07-20T01:48:54;101528.97;;;16.69;100.00
69630;BME280;56857;52.212;5.496;2023-07-20T01:51:19;101531.00;;;16.67;100.00
69630;BME280;56857;52.212;5.496;2023-07-20T01:53:45;101534.50;;;16.67;100.00
69630;BME280;56857;52.212;5.496;2023-07-20T01:56:10;101539.03;;;16.67;100.00
69630;BME280;56857;52.212;5.496;2023-07-20T01:58:36;101540.25;;;16.64;100.00
69630;BME280;56857;52.212;5.496;2023-07-20T02:01:01;101545.81;;;16.63;100.00
69630;BME280;56857;52.212;5.496;2023-07-20T02:03:26;101551.53;;;16.60;100.00
69630;BME280;56857;52.212;5.496;2023-07-20T02:05:52;101547.38;;;16.57;100.00
69630;BME280;56857;52.212;5.496;2023-07-20T02:08:17;101544.91;;;16.56;100.00
69630;BME280;56857;52.212;5.496;2023-07-20T02:10:47;101545.31;;;16.53;100.00
69630;BME280;56857;52.212;5.496;2023-07-20T02:13:12;101538.66;;;16.49;100.00
69630;BME280;56857;52.212;5.496;2023-07-20T02:15:38;101539.69;;;16.48;100.00
69630;BME280;56857;52.212;5.496;2023-07-20T02:18:03;101544.22;;;16.47;100.00
69630;BME280;56857;52.212;5.496;2023-07-20T02:20:28;101546.69;;;16.49;100.00
69630;BME280;56857;52.212;5.496;2023-07-20T02:22:54;101553.50;;;16.51;100.00
69630;BME280;56857;52.212;5.496;2023-07-20T02:25:19;101556.84;;;16.53;100.00
69630;BME280;56857;52.212;5.496;2023-07-20T02:27:44;101551.47;;;16.53;100.00
69630;BME280;56857;52.212;5.496;2023-07-20T02:30:10;101554.81;;;16.55;100.00
69630;BME280;56857;52.212;5.496;2023-07-20T02:32:36;101554.81;;;16.55;100.00
69630;BME280;56857;52.212;5.496;2023-07-20T02:35:02;101554.97;;;16.54;100.00
69630;BME280;56857;52.212;5.496;2023-07-20T02:37:27;101555.78;;;16.54;100.00
69630;BME280;56857;52.212;5.496;2023-07-20T02:39:52;101562.19;;;16.53;100.00
69630;BME280;56857;52.212;5.496;2023-07-20T02:42:17;101550.81;;;16.51;100.00
69630;BME280;56857;52.212;5.496;2023-07-20T02:44:43;101550.38;;;16.48;100.00
69630;BME280;56857;52.212;5.496;2023-07-20T02:47:08;101549.94;;;16.44;100.00
69630;BME280;56857;52.212;5.496;2023-07-20T02:49:34;101547.66;;;16.41;100.00
69630;BME280;56857;52.212;5.496;2023-07-20T02:51:59;101553.22;;;16.39;100.00
69630;BME280;56857;52.212;5.496;2023-07-20T02:54:24;101555.03;;;16.39;100.00
69630;BME280;56857;52.212;5.496;2023-07-20T02:56:50;101555.22;;;16.37;100.00
69630;BME280;56857;52.212;5.496;2023-07-20T02:59:15;101549.22;;;16.35;100.00
69630;BME280;56857;52.212;5.496;2023-07-20T03:01:40;101555.78;;;16.33;100.00
69630;BME280;56857;52.212;5.496;2023-07-20T03:04:06;101558.47;;;16.33;100.00
69630;BME280;56857;52.212;5.496;2023-07-20T03:06:31;101558.66;;;16.31;100.00
69630;BME280;56857;52.212;5.496;2023-07-20T03:08:56;101562.38;;;16.30;100.00
69630;BME280;56857;52.212;5.496;2023-07-20T03:11:21;101564.19;;;16.30;100.00
69630;BME280;56857;52.212;5.496;2023-07-20T03:13:47;101567.72;;;16.30;100.00
69630;BME280;56857;52.212;5.496;2023-07-20T03:16:14;101574.06;;;16.29;100.00
69630;BME280;56857;52.212;5.496;2023-07-20T03:18:39;101571.16;;;16.24;100.00
69630;BME280;56857;52.212;5.496;2023-07-20T03:21:06;101578.53;;;16.22;100.00
69630;BME280;56857;52.212;5.496;2023-07-20T03:23:32;101582.22;;;16.21;100.00
69630;BME280;56857;52.212;5.496;2023-07-20T03:25:57;101579.56;;;16.21;100.00
69630;BME280;56857;52.212;5.496;2023-07-20T03:28:23;101589.44;;;16.20;100.00
69630;BME280;56857;52.212;5.496;2023-07-20T03:30:57;101583.03;;;16.21;100.00
69630;BME280;56857;52.212;5.496;2023-07-20T03:33:28;101575.03;;;16.21;100.00
69630;BME280;56857;52.212;5.496;2023-07-20T03:35:54;101591.25;;;16.20;100.00
69630;BME280;56857;52.212;5.496;2023-07-20T03:38:20;101580.75;;;16.18;100.00
69630;BME280;56857;52.212;5.496;2023-07-20T03:40:52;101587.94;;;16.18;100.00
69630;BME280;56857;52.212;5.496;2023-07-20T03:43:18;101589.81;;;16.17;100.00
69630;BME280;56857;52.212;5.496;2023-07-20T03:45:44;101591.16;;;16.13;100.00
69630;BME280;56857;52.212;5.496;2023-07-20T03:48:10;101591.53;;;16.10;100.00
69630;BME280;56857;52.212;5.496;2023-07-20T03:50:35;101588.25;;;16.08;100.00
69630;BME280;56857;52.212;5.496;2023-07-20T03:53:00;101586.56;;;16.07;100.00
69630;BME280;56857;52.212;5.496;2023-07-20T03:55:26;101588.63;;;16.05;100.00
69630;BME280;56857;52.212;5.496;2023-07-20T03:57:51;101589.63;;;16.04;100.00
69630;BME280;56857;52.212;5.496;2023-07-20T04:00:17;101591.47;;;16.04;100.00
69630;BME280;56857;52.212;5.496;2023-07-20T04:02:43;101585.28;;;16.03;100.00
69630;BME280;56857;52.212;5.496;2023-07-20T04:05:08;101583.66;;;16.02;100.00
69630;BME280;56857;52.212;5.496;2023-07-20T04:07:33;101584.84;;;15.99;100.00
69630;BME280;56857;52.212;5.496;2023-07-20T04:09:59;101590.38;;;15.98;100.00
69630;BME280;56857;52.212;5.496;2023-07-20T04:12:24;101596.09;;;15.95;100.00
69630;BME280;56857;52.212;5.496;2023-07-20T04:14:49;101595.63;;;15.91;100.00
69630;BME280;56857;52.212;5.496;2023-07-20T04:17:15;101600.34;;;15.89;100.00
69630;BME280;56857;52.212;5.496;2023-07-20T04:19:40;101601.34;;;15.88;100.00
69630;BME280;56857;52.212;5.496;2023-07-20T04:22:05;101601.53;;;15.87;100.00
69630;BME280;56857;52.212;5.496;2023-07-20T04:24:30;101606.69;;;15.88;100.00
69630;BME280;56857;52.212;5.496;2023-07-20T04:26:56;101602.00;;;15.90;100.00
69630;BME280;56857;52.212;5.496;2023-07-20T04:29:21;101609.81;;;15.92;100.00
69630;BME280;56857;52.212;5.496;2023-07-20T04:31:46;101613.16;;;15.94;100.00
69630;BME280;56857;52.212;5.496;2023-07-20T04:34:12;101615.47;;;15.97;100.00
69630;BME280;56857;52.212;5.496;2023-07-20T04:36:37;101617.97;;;15.98;100.00
69630;BME280;56857;52.212;5.496;2023-07-20T04:39:03;101617.59;;;16.02;100.00
69630;BME280;56857;52.212;5.496;2023-07-20T04:41:28;101614.34;;;16.06;100.00
69630;BME280;56857;52.212;5.496;2023-07-20T04:43:53;101612.13;;;16.10;100.00
69630;BME280;56857;52.212;5.496;2023-07-20T04:46:19;101617.09;;;16.13;100.00
69630;BME280;56857;52.212;5.496;2023-07-20T04:48:44;101610.91;;;16.12;100.00
69630;BME280;56857;52.212;5.496;2023-07-20T04:51:09;101623.47;;;16.12;100.00
69630;BME280;56857;52.212;5.496;2023-07-20T04:53:34;101624.66;;;16.09;100.00
69630;BME280;56857;52.212;5.496;2023-07-20T04:56:00;101624.84;;;16.08;100.00
69630;BME280;56857;52.212;5.496;2023-07-20T04:58:25;101627.72;;;16.06;100.00
69630;BME280;56857;52.212;5.496;2023-07-20T05:00:51;101618.03;;;16.05;100.00
69630;BME280;56857;52.212;5.496;2023-07-20T05:03:17;101620.88;;;16.04;100.00
69630;BME280;56857;52.212;5.496;2023-07-20T05:05:42;101629.28;;;16.01;100.00
69630;BME280;56857;52.212;5.496;2023-07-20T05:08:08;101628.44;;;16.00;100.00
69630;BME280;56857;52.212;5.496;2023-07-20T05:10:33;101625.97;;;15.98;100.00
69630;BME280;56857;52.212;5.496;2023-07-20T05:12:59;101625.97;;;15.98;100.00
69630;BME280;56857;52.212;5.496;2023-07-20T05:15:24;101631.34;;;15.98;100.00
69630;BME280;56857;52.212;5.496;2023-07-20T05:17:50;101625.78;;;16.00;100.00
69630;BME280;56857;52.212;5.496;2023-07-20T05:20:15;101626.59;;;16.01;100.00
69630;BME280;56857;52.212;5.496;2023-07-20T05:22:41;101635.66;;;15.99;100.00
69630;BME280;56857;52.212;5.496;2023-07-20T05:25:08;101624.97;;;15.99;100.00
69630;BME280;56857;52.212;5.496;2023-07-20T05:27:35;101630.97;;;16.02;100.00
69630;BME280;56857;52.212;5.496;2023-07-20T05:30:01;101633.63;;;16.02;100.00
69630;BME280;56857;52.212;5.496;2023-07-20T05:32:27;101633.44;;;16.03;100.00
69630;BME280;56857;52.212;5.496;2023-07-20T05:34:53;101633.25;;;16.05;100.00
69630;BME280;56857;52.212;5.496;2023-07-20T05:37:18;101638.63;;;16.05;100.00
69630;BME280;56857;52.212;5.496;2023-07-20T05:39:44;101636.56;;;16.07;100.00
69630;BME280;56857;52.212;5.496;2023-07-20T05:42:09;101639.22;;;16.07;100.00
69630;BME280;56857;52.212;5.496;2023-07-20T05:44:34;101631.03;;;16.08;100.00
69630;BME280;56857;52.212;5.496;2023-07-20T05:46:59;101631.88;;;16.09;100.00
69630;BME280;56857;52.212;5.496;2023-07-20T05:49:25;101628.38;;;16.08;100.00
69630;BME280;56857;52.212;5.496;2023-07-20T05:51:50;101633.50;;;16.10;100.00
69630;BME280;56857;52.212;5.496;2023-07-20T05:54:15;101628.63;;;16.13;100.00
69630;BME280;56857;52.212;5.496;2023-07-20T05:56:40;101635.28;;;16.17;100.00
69630;BME280;56857;52.212;5.496;2023-07-20T05:59:06;101636.56;;;16.21;100.00
69630;BME280;56857;52.212;5.496;2023-07-20T06:01:31;101632.75;;;16.31;100.00
69630;BME280;56857;52.212;5.496;2023-07-20T06:03:56;101630.81;;;16.39;100.00
69630;BME280;56857;52.212;5.496;2023-07-20T06:06:22;101641.59;;;16.46;100.00
69630;BME280;56857;52.212;5.496;2023-07-20T06:08:47;101643.50;;;16.52;100.00
69630;BME280;56857;52.212;5.496;2023-07-20T06:11:12;101641.06;;;16.57;100.00
69630;BME280;56857;52.212;5.496;2023-07-20T06:13:37;101648.94;;;16.59;100.00
69630;BME280;56857;52.212;5.496;2023-07-20T06:16:03;101650.94;;;16.57;100.00
69630;BME280;56857;52.212;5.496;2023-07-20T06:18:29;101643.94;;;16.56;100.00
69630;BME280;56857;52.212;5.496;2023-07-20T06:20:54;101640.63;;;16.54;100.00
69630;BME280;56857;52.212;5.496;2023-07-20T06:23:19;101649.47;;;16.54;100.00
69630;BME280;56857;52.212;5.496;2023-07-20T06:25:45;101650.78;;;16.58;100.00
69630;BME280;56857;52.212;5.496;2023-07-20T06:28:10;101645.03;;;16.61;100.00
69630;BME280;56857;52.212;5.496;2023-07-20T06:30:35;101658.88;;;16.65;100.00
69630;BME280;56857;52.212;5.496;2023-07-20T06:33:01;101652.28;;;16.67;100.00
69630;BME280;56857;52.212;5.496;2023-07-20T06:35:26;101653.78;;;16.70;100.00
69630;BME280;56857;52.212;5.496;2023-07-20T06:37:52;101656.88;;;16.74;100.00
69630;BME280;56857;52.212;5.496;2023-07-20T06:40:17;101653.69;;;16.78;100.00
69630;BME280;56857;52.212;5.496;2023-07-20T06:42:42;101654.78;;;16.84;100.00
69630;BME280;56857;52.212;5.496;2023-07-20T06:45:08;101648.66;;;16.90;100.00
69630;BME280;56857;52.212;5.496;2023-07-20T06:47:33;101664.59;;;16.98;100.00
69630;BME280;56857;52.212;5.496;2023-07-20T06:49:59;101656.44;;;17.06;100.00
69630;BME280;56857;52.212;5.496;2023-07-20T06:52:24;101657.91;;;17.09;100.00
69630;BME280;56857;52.212;5.496;2023-07-20T06:54:49;101659.56;;;17.10;100.00
69630;BME280;56857;52.212;5.496;2023-07-20T06:57:15;101657.06;;;17.08;100.00
69630;BME280;56857;52.212;5.496;2023-07-20T06:59:40;101663.44;;;17.07;100.00
69630;BME280;56857;52.212;5.496;2023-07-20T07:02:05;101669.19;;;17.04;100.00
69630;BME280;56857;52.212;5.496;2023-07-20T07:04:31;101669.38;;;17.03;100.00
69630;BME280;56857;52.212;5.496;2023-07-20T07:06:56;101674.09;;;17.01;100.00
69630;BME280;56857;52.212;5.496;2023-07-20T07:09:22;101669.56;;;17.01;100.00
69630;BME280;56857;52.212;5.496;2023-07-20T07:11:47;101661.72;;;17.00;100.00
69630;BME280;56857;52.212;5.496;2023-07-20T07:14:12;101674.47;;;16.98;100.00
69630;BME280;56857;52.212;5.496;2023-07-20T07:16:37;101671.81;;;16.98;100.00
69630;BME280;56857;52.212;5.496;2023-07-20T07:19:03;101666.88;;;17.01;100.00
69630;BME280;56857;52.212;5.496;2023-07-20T07:21:28;101667.75;;;17.08;100.00
69630;BME280;56857;52.212;5.496;2023-07-20T07:23:53;101658.97;;;17.14;100.00
69630;BME280;56857;52.212;5.496;2023-07-20T07:26:19;101669.28;;;17.18;100.00
69630;BME280;56857;52.212;5.496;2023-07-20T07:28:44;101667.25;;;17.20;100.00
69630;BME280;56857;52.212;5.496;2023-07-20T07:31:09;101662.34;;;17.23;100.00
69630;BME280;56857;52.212;5.496;2023-07-20T07:33:35;101660.75;;;17.29;100.00
69630;BME280;56857;52.212;5.496;2023-07-20T07:36:00;101655.19;;;17.30;100.00
69630;BME280;56857;52.212;5.496;2023-07-20T07:38:25;101654.19;;;17.31;100.00
69630;BME280;56857;52.212;5.496;2023-07-20T07:40:50;101665.50;;;17.33;100.00
69630;BME280;56857;52.212;5.496;2023-07-20T07:43:16;101662.00;;;17.33;100.00
69630;BME280;56857;52.212;5.496;2023-07-20T07:45:41;101656.84;;;17.31;100.00
69630;BME280;56857;52.212;5.496;2023-07-20T07:48:06;101657.84;;;17.30;100.00
69630;BME280;56857;52.212;5.496;2023-07-20T07:50:33;101662.84;;;17.33;100.00
69630;BME280;56857;52.212;5.496;2023-07-20T07:52:59;101662.44;;;17.36;100.00
69630;BME280;56857;52.212;5.496;2023-07-20T07:55:24;101658.38;;;17.41;100.00
69630;BME280;56857;52.212;5.496;2023-07-20T07:57:50;101663.41;;;17.50;100.00
69630;BME280;56857;52.212;5.496;2023-07-20T08:00:16;101659.16;;;17.63;100.00
69630;BME280;56857;52.212;5.496;2023-07-20T08:02:42;101663.19;;;17.80;100.00
69630;BME280;56857;52.212;5.496;2023-07-20T08:05:08;101664.16;;;18.00;100.00
69630;BME280;56857;52.212;5.496;2023-07-20T08:07:33;101658.84;;;18.14;100.00
69630;BME280;56857;52.212;5.496;2023-07-20T08:09:59;101666.72;;;18.22;100.00
69630;BME280;56857;52.212;5.496;2023-07-20T08:12:24;101665.91;;;18.28;100.00
69630;BME280;56857;52.212;5.496;2023-07-20T08:14:49;101661.41;;;18.28;100.00
69630;BME280;56857;52.212;5.496;2023-07-20T08:17:15;101655.41;;;18.33;100.00
69630;BME280;56857;52.212;5.496;2023-07-20T08:19:40;101646.97;;;18.36;100.00
69630;BME280;56857;52.212;5.496;2023-07-20T08:22:05;101652.78;;;18.46;100.00
69630;BME280;56857;52.212;5.496;2023-07-20T08:24:31;101657.56;;;18.58;100.00
69630;BME280;56857;52.212;5.496;2023-07-20T08:26:56;101648.78;;;19.04;100.00
69630;BME280;56857;52.212;5.496;2023-07-20T08:29:21;101647.88;;;20.54;100.00
69630;BME280;56857;52.212;5.496;2023-07-20T08:31:47;101652.81;;;21.46;100.00
69630;BME280;56857;52.212;5.496;2023-07-20T08:34:12;101651.19;;;22.37;100.00
69630;BME280;56857;52.212;5.496;2023-07-20T08:36:37;101660.72;;;23.00;100.00
69630;BME280;56857;52.212;5.496;2023-07-20T08:39:02;101651.56;;;23.83;100.00
69630;BME280;56857;52.212;5.496;2023-07-20T08:41:28;101658.03;;;24.46;100.00
69630;BME280;56857;52.212;5.496;2023-07-20T08:43:54;101655.09;;;24.36;98.57
69630;BME280;56857;52.212;5.496;2023-07-20T08:46:20;101656.91;;;25.04;97.01
69630;BME280;56857;52.212;5.496;2023-07-20T08:48:46;101665.81;;;25.89;91.05
69630;BME280;56857;52.212;5.496;2023-07-20T08:51:12;101665.97;;;26.75;88.24
69630;BME280;56857;52.212;5.496;2023-07-20T08:53:38;101662.13;;;27.31;79.71
69630;BME280;56857;52.212;5.496;2023-07-20T08:56:04;101660.66;;;27.60;70.59
69630;BME280;56857;52.212;5.496;2023-07-20T08:58:30;101658.91;;;27.86;62.38
69630;BME280;56857;52.212;5.496;2023-07-20T09:00:56;101658.34;;;27.79;59.11
69630;BME280;56857;52.212;5.496;2023-07-20T09:03:23;101660.59;;;27.50;59.95
69630;BME280;56857;52.212;5.496;2023-07-20T09:05:49;101660.97;;;27.21;69.63
69630;BME280;56857;52.212;5.496;2023-07-20T09:08:14;101657.50;;;27.04;69.33
69630;BME280;56857;52.212;5.496;2023-07-20T09:10:39;101663.69;;;27.26;72.38
69630;BME280;56857;52.212;5.496;2023-07-20T09:13:05;101660.38;;;28.14;61.55
69630;BME280;56857;52.212;5.496;2023-07-20T09:15:30;101664.09;;;28.81;56.50
69630;BME280;56857;52.212;5.496;2023-07-20T09:18:01;101658.34;;;29.44;55.48
69630;BME280;56857;52.212;5.496;2023-07-20T09:20:26;101655.19;;;30.02;48.43
69630;BME280;56857;52.212;5.496;2023-07-20T09:22:52;101660.31;;;30.24;48.42
69630;BME280;56857;52.212;5.496;2023-07-20T09:25:18;101650.41;;;29.68;50.92
69630;BME280;56857;52.212;5.496;2023-07-20T09:27:46;101656.47;;;30.20;44.89
69630;BME280;56857;52.212;5.496;2023-07-20T09:30:13;101665.50;;;29.30;50.24
69630;BME280;56857;52.212;5.496;2023-07-20T09:32:44;101656.59;;;27.68;51.30
69630;BME280;56857;52.212;5.496;2023-07-20T09:35:22;101656.25;;;26.30;68.96
69630;BME280;56857;52.212;5.496;2023-07-20T09:37:57;101659.13;;;26.68;71.85
69630;BME280;56857;52.212;5.496;2023-07-20T09:40:24;101655.94;;;27.93;56.57
69630;BME280;56857;52.212;5.496;2023-07-20T09:42:52;101651.28;;;28.77;45.95
69630;BME280;56857;52.212;5.496;2023-07-20T09:45:17;101652.38;;;29.27;45.08
69630;BME280;56857;52.212;5.496;2023-07-20T09:47:43;101655.00;;;29.78;47.42
69630;BME280;56857;52.212;5.496;2023-07-20T09:50:08;101649.16;;;30.05;42.44
69630;BME280;56857;52.212;5.496;2023-07-20T09:52:35;101653.09;;;30.43;43.25
69630;BME280;56857;52.212;5.496;2023-07-20T09:55:01;101654.19;;;30.77;45.11
69630;BME280;56857;52.212;5.496;2023-07-20T09:57:28;101650.84;;;30.51;44.98
69630;BME280;56857;52.212;5.496;2023-07-20T09:59:53;101644.06;;;30.82;41.25
69630;BME280;56857;52.212;5.496;2023-07-20T10:02:30;101644.16;;;31.30;43.92
69630;BME280;56857;52.212;5.496;2023-07-20T10:05:00;101639.78;;;31.82;40.73
69630;BME280;56857;52.212;5.496;2023-07-20T10:07:27;101647.06;;;31.92;38.02
69630;BME280;56857;52.212;5.496;2023-07-20T10:09:53;101639.28;;;31.56;36.02
69630;BME280;56857;52.212;5.496;2023-07-20T10:12:22;101642.50;;;31.58;37.42
69630;BME280;56857;52.212;5.496;2023-07-20T10:14:54;101649.91;;;30.65;39.18
69630;BME280;56857;52.212;5.496;2023-07-20T10:17:22;101639.78;;;29.62;46.63
69630;BME280;56857;52.212;5.496;2023-07-20T10:19:52;101641.63;;;29.76;42.14
69630;BME280;56857;52.212;5.496;2023-07-20T10:22:24;101635.81;;;30.48;40.80
69630;BME280;56857;52.212;5.496;2023-07-20T10:24:50;101640.00;;;31.09;39.77
69630;BME280;56857;52.212;5.496;2023-07-20T10:27:16;101631.56;;;31.58;40.55
69630;BME280;56857;52.212;5.496;2023-07-20T10:29:42;101636.69;;;31.89;40.33
69630;BME280;56857;52.212;5.496;2023-07-20T10:32:08;101636.22;;;31.58;39.12
69630;BME280;56857;52.212;5.496;2023-07-20T10:34:34;101632.13;;;31.31;36.10
69630;BME280;56857;52.212;5.496;2023-07-20T10:36:59;101630.69;;;31.63;36.86
69630;BME280;56857;52.212;5.496;2023-07-20T10:39:30;101634.13;;;31.98;38.74
69630;BME280;56857;52.212;5.496;2023-07-20T10:44:25;101635.63;;;31.85;34.97
69630;BME280;56857;52.212;5.496;2023-07-20T10:47:01;101628.47;;;31.65;34.35
69630;BME280;56857;52.212;5.496;2023-07-20T10:49:27;101629.81;;;31.44;36.85
69630;BME280;56857;52.212;5.496;2023-07-20T10:51:59;101614.13;;;31.73;38.23
69630;BME280;56857;52.212;5.496;2023-07-20T10:56:50;101620.63;;;32.01;36.56
69630;BME280;56857;52.212;5.496;2023-07-20T10:59:36;101614.88;;;30.28;36.92
69630;BME280;56857;52.212;5.496;2023-07-20T11:02:06;101610.09;;;29.04;36.73
69630;BME280;56857;52.212;5.496;2023-07-20T11:04:39;101619.69;;;27.87;40.84
69630;BME280;56857;52.212;5.496;2023-07-20T11:07:04;101605.44;;;27.22;42.36
69630;BME280;56857;52.212;5.496;2023-07-20T11:09:34;101612.13;;;27.47;46.71
69630;BME280;56857;52.212;5.496;2023-07-20T11:12:10;101605.38;;;28.33;44.29
69630;BME280;56857;52.212;5.496;2023-07-20T11:14:40;101606.81;;;28.86;40.03
69630;BME280;56857;52.212;5.496;2023-07-20T11:17:13;101602.44;;;29.11;41.14
69630;BME280;56857;52.212;5.496;2023-07-20T11:19:39;101602.09;;;29.43;44.10
69630;BME280;56857;52.212;5.496;2023-07-20T11:22:05;101603.44;;;29.46;44.14
69630;BME280;56857;52.212;5.496;2023-07-20T11:24:30;101605.72;;;28.98;43.45
69630;BME280;56857;52.212;5.496;2023-07-20T11:26:56;101598.03;;;28.44;42.83
69630;BME280;56857;52.212;5.496;2023-07-20T11:29:22;101597.19;;;28.23;44.01
69630;BME280;56857;52.212;5.496;2023-07-20T11:31:48;101591.72;;;28.23;45.93
69630;BME280;56857;52.212;5.496;2023-07-20T11:34:16;101587.97;;;28.49;43.88
69630;BME280;56857;52.212;5.496;2023-07-20T11:36:44;101587.16;;;28.49;45.26
69630;BME280;56857;52.212;5.496;2023-07-20T11:39:11;101590.97;;;28.58;49.17
69630;BME280;56857;52.212;5.496;2023-07-20T11:41:37;101591.53;;;28.55;48.90
69630;BME280;56857;52.212;5.496;2023-07-20T11:44:03;101591.72;;;28.33;47.80
69630;BME280;56857;52.212;5.496;2023-07-20T11:46:28;101589.19;;;27.90;49.74
69630;BME280;56857;52.212;5.496;2023-07-20T11:49:00;101588.47;;;27.58;50.35
69630;BME280;56857;52.212;5.496;2023-07-20T11:51:29;101586.91;;;27.19;48.03
69630;BME280;56857;52.212;5.496;2023-07-20T11:53:55;101582.88;;;26.95;51.07
69630;BME280;56857;52.212;5.496;2023-07-20T11:56:23;101579.53;;;26.83;55.36
69630;BME280;56857;52.212;5.496;2023-07-20T11:58:49;101576.09;;;26.60;50.43
69630;BME280;56857;52.212;5.496;2023-07-20T12:01:15;101572.75;;;26.26;48.24
69630;BME280;56857;52.212;5.496;2023-07-20T12:03:42;101575.19;;;26.00;58.12
69630;BME280;56857;52.212;5.496;2023-07-20T12:06:08;101567.31;;;25.99;66.75
69630;BME280;56857;52.212;5.496;2023-07-20T12:08:34;101563.28;;;26.01;61.92
69630;BME280;56857;52.212;5.496;2023-07-20T12:11:00;101572.25;;;26.02;66.50
69630;BME280;56857;52.212;5.496;2023-07-20T12:13:47;101574.47;;;26.10;58.52
69630;BME280;56857;52.212;5.496;2023-07-20T12:16:14;101572.88;;;26.36;63.21
69630;BME280;56857;52.212;5.496;2023-07-20T12:18:40;101576.56;;;26.84;58.32
69630;BME280;56857;52.212;5.496;2023-07-20T12:21:06;101573.50;;;27.13;51.51
69630;BME280;56857;52.212;5.496;2023-07-20T12:23:39;101566.16;;;27.13;59.76
69630;BME280;56857;52.212;5.496;2023-07-20T12:26:08;101558.06;;;27.23;47.31
69630;BME280;56857;52.212;5.496;2023-07-20T12:28:38;101555.53;;;27.12;44.62
69630;BME280;56857;52.212;5.496;2023-07-20T12:31:03;101558.38;;;26.57;47.61
69630;BME280;56857;52.212;5.496;2023-07-20T12:33:29;101551.88;;;26.31;47.92
69630;BME280;56857;52.212;5.496;2023-07-20T12:35:54;101555.16;;;26.06;48.43
69630;BME280;56857;52.212;5.496;2023-07-20T12:38:19;101560.66;;;25.67;51.29
69630;BME280;56857;52.212;5.496;2023-07-20T12:40:44;101554.03;;;25.36;51.18
69630;BME280;56857;52.212;5.496;2023-07-20T12:43:10;101550.59;;;25.07;49.73
69630;BME280;56857;52.212;5.496;2023-07-20T12:45:35;101547.56;;;24.87;55.05
69630;BME280;56857;52.212;5.496;2023-07-20T12:48:00;101548.06;;;25.01;54.15
69630;BME280;56857;52.212;5.496;2023-07-20T12:50:26;101545.41;;;25.06;53.27